Current | Forecast
Updated: 9:00 PM -04 on September 25, 2017
Observed at Timehri, Guyana
Temperature 26°C
Humidity 94%
Dew Point 25°C
Wind NE at 7 km/h
Pressure 1012 hPa (Steady)
Conditions Clear
Visibility -
UV N/A
Clouds
Yesterday's Maximum 31°C
Yesterday's Minimum 24°C approx.
Yesterday's Cooling Degree Days 17 approx.
Sunrise5:43 AM -04
Sunset5:48 PM -04
Moon Rise10:00 AM -04
Moon Set10:07 PM -04
Moon PhaseMoon Phase
Waxing Crescent
Raw METARMETAR SYCJ 260100Z 05004KT CAVOK 26/25 Q1012 NOSIG


Monday
. High: 87° F.
Tuesday
. High: 87° F.
Wednesday
. High: 89° F.
Thursday
. High: 86° F.
Friday
. High: 87° F.
Saturday
. High: 87° F.
Sunday
. High: 86° F.
Monday
. High: 87° F.

Units: English | Metric

Find the Weather for any City, State or Zipcode, or Country:

U.S. State List | Severe Weather | Tropical Storms | Ski Conditions
United States | Canada | Central America | South America | Asia | Europe | Australia | Africa | Islands

Weather Underground

© Copyright 2017
The Weather Company, LLC